sensor_id;sensor_type;location;lat;lon;timestamp;pressure;altitude;pressure_sealevel;temperature;humidity
41800;BME280;27468;47.460;19.034;2024-02-21T00:01:33;101195.97;;;8.46;87.33
41800;BME280;27468;47.460;19.034;2024-02-21T00:03:59;101167.00;;;8.29;86.58
41800;BME280;27468;47.460;19.034;2024-02-21T00:06:24;101192.47;;;8.48;86.59
41800;BME280;27468;47.460;19.034;2024-02-21T00:08:51;101180.19;;;8.35;86.03
41800;BME280;27468;47.460;19.034;2024-02-21T00:11:16;101217.91;;;8.55;85.98
41800;BME280;27468;47.460;19.034;2024-02-21T00:13:41;101174.94;;;8.43;85.62
41800;BME280;27468;47.460;19.034;2024-02-21T00:16:07;101164.44;;;8.47;84.50
41800;BME280;27468;47.460;19.034;2024-02-21T00:18:32;101187.25;;;8.59;84.49
41800;BME280;27468;47.460;19.034;2024-02-21T00:20:57;101195.13;;;8.62;82.98
41800;BME280;27468;47.460;19.034;2024-02-21T00:23:23;101177.59;;;8.49;82.60
41800;BME280;27468;47.460;19.034;2024-02-21T00:25:48;101170.56;;;8.49;81.95
41800;BME280;27468;47.460;19.034;2024-02-21T00:28:13;101160.06;;;8.40;82.34
41800;BME280;27468;47.460;19.034;2024-02-21T00:30:39;101140.72;;;8.32;82.18
41800;BME280;27468;47.460;19.034;2024-02-21T00:33:04;101162.72;;;8.57;81.93
41800;BME280;27468;47.460;19.034;2024-02-21T00:35:30;101161.81;;;8.55;81.52
41800;BME280;27468;47.460;19.034;2024-02-21T00:37:55;101167.97;;;8.66;81.23
41800;BME280;27468;47.460;19.034;2024-02-21T00:40:22;101158.34;;;8.62;81.70
41800;BME280;27468;47.460;19.034;2024-02-21T00:42:48;101149.56;;;8.62;81.14
41800;BME280;27468;47.460;19.034;2024-02-21T00:45:14;101141.69;;;8.54;80.58
41800;BME280;27468;47.460;19.034;2024-02-21T00:47:39;101164.44;;;8.67;80.46
41800;BME280;27468;47.460;19.034;2024-02-21T00:50:05;101163.56;;;8.79;80.54
41800;BME280;27468;47.460;19.034;2024-02-21T00:52:32;101135.53;;;8.72;79.68
41800;BME280;27468;47.460;19.034;2024-02-21T00:54:57;101125.03;;;8.63;79.62
41800;BME280;27468;47.460;19.034;2024-02-21T00:57:22;101160.94;;;8.85;79.38
41800;BME280;27468;47.460;19.034;2024-02-21T00:59:49;101160.06;;;8.86;79.55
41800;BME280;27468;47.460;19.034;2024-02-21T01:02:14;101160.94;;;8.76;79.30
41800;BME280;27468;47.460;19.034;2024-02-21T01:04:39;101143.44;;;8.59;79.29
41800;BME280;27468;47.460;19.034;2024-02-21T01:07:05;101142.53;;;8.70;78.16
41800;BME280;27468;47.460;19.034;2024-02-21T01:09:30;101136.44;;;8.65;77.72
41800;BME280;27468;47.460;19.034;2024-02-21T01:11:56;101144.31;;;8.60;77.97
41800;BME280;27468;47.460;19.034;2024-02-21T01:14:21;101132.91;;;8.52;77.81
41800;BME280;27468;47.460;19.034;2024-02-21T01:16:46;101151.31;;;8.58;77.35
41800;BME280;27468;47.460;19.034;2024-02-21T01:19:12;101160.94;;;8.56;77.40
41800;BME280;27468;47.460;19.034;2024-02-21T01:21:37;101154.81;;;8.52;77.77
41800;BME280;27468;47.460;19.034;2024-02-21T01:24:02;101127.66;;;8.52;77.18
41800;BME280;27468;47.460;19.034;2024-02-21T01:26:28;101161.84;;;8.63;77.35
41800;BME280;27468;47.460;19.034;2024-02-21T01:28:53;101146.94;;;8.66;76.29
41800;BME280;27468;47.460;19.034;2024-02-21T01:31:18;101135.53;;;8.52;77.33
41800;BME280;27468;47.460;19.034;2024-02-21T01:33:44;101133.78;;;8.40;78.09
41800;BME280;27468;47.460;19.034;2024-02-21T01:36:09;101122.34;;;8.32;78.20
41800;BME280;27468;47.460;19.034;2024-02-21T01:38:34;101141.66;;;8.39;78.55
41800;BME280;27468;47.460;19.034;2024-02-21T01:41:00;101133.78;;;8.45;78.60
41800;BME280;27468;47.460;19.034;2024-02-21T01:43:25;101149.56;;;8.49;78.71
41800;BME280;27468;47.460;19.034;2024-02-21T01:45:55;101147.81;;;8.54;78.37
41800;BME280;27468;47.460;19.034;2024-02-21T01:48:24;101116.25;;;8.35;78.63
41800;BME280;27468;47.460;19.034;2024-02-21T01:50:50;101149.53;;;8.68;78.28
41800;BME280;27468;47.460;19.034;2024-02-21T01:53:19;101154.81;;;8.65;77.21
41800;BME280;27468;47.460;19.034;2024-02-21T01:55:48;101154.81;;;8.60;78.17
41800;BME280;27468;47.460;19.034;2024-02-21T01:58:14;101123.28;;;8.49;77.49
41800;BME280;27468;47.460;19.034;2024-02-21T02:00:44;101149.56;;;8.60;78.39
41800;BME280;27468;47.460;19.034;2024-02-21T02:03:10;101144.28;;;8.68;77.21
41800;BME280;27468;47.460;19.034;2024-02-21T02:05:50;101128.53;;;8.65;76.89
41800;BME280;27468;47.460;19.034;2024-02-21T02:08:17;101112.75;;;8.36;77.36
41800;BME280;27468;47.460;19.034;2024-02-21T02:10:43;101110.13;;;8.36;76.82
41800;BME280;27468;47.460;19.034;2024-02-21T02:13:09;101128.53;;;8.48;77.23
41800;BME280;27468;47.460;19.034;2024-02-21T02:15:53;101132.03;;;8.47;76.12
41800;BME280;27468;47.460;19.034;2024-02-21T02:18:19;101163.56;;;8.50;76.38
41800;BME280;27468;47.460;19.034;2024-02-21T02:20:45;101143.44;;;8.53;75.54
41800;BME280;27468;47.460;19.034;2024-02-21T02:25:38;101139.91;;;8.48;75.57
41800;BME280;27468;47.460;19.034;2024-02-21T02:28:07;101112.72;;;8.29;75.62
41800;BME280;27468;47.460;19.034;2024-02-21T02:30:33;101096.94;;;8.26;75.69
41800;BME280;27468;47.460;19.034;2024-02-21T02:33:00;101138.16;;;8.38;75.74
41800;BME280;27468;47.460;19.034;2024-02-21T02:35:25;101117.97;;;8.29;75.85
41800;BME280;27468;47.460;19.034;2024-02-21T02:37:50;101119.72;;;8.29;75.24
41800;BME280;27468;47.460;19.034;2024-02-21T02:40:17;101112.69;;;8.26;75.38
41800;BME280;27468;47.460;19.034;2024-02-21T02:42:43;101139.03;;;8.36;75.48
41800;BME280;27468;47.460;19.034;2024-02-21T02:45:09;101117.06;;;8.18;74.87
41800;BME280;27468;47.460;19.034;2024-02-21T02:47:34;101116.19;;;8.19;75.27
41800;BME280;27468;47.460;19.034;2024-02-21T02:50:00;101138.94;;;8.17;75.77
41800;BME280;27468;47.460;19.034;2024-02-21T02:52:25;101104.81;;;8.08;76.28
41800;BME280;27468;47.460;19.034;2024-02-21T02:54:50;101141.59;;;8.31;75.84
41800;BME280;27468;47.460;19.034;2024-02-21T02:57:17;101105.66;;;8.10;75.90
41800;BME280;27468;47.460;19.034;2024-02-21T02:59:50;101126.69;;;8.19;75.51
41800;BME280;27468;47.460;19.034;2024-02-21T03:02:15;101110.06;;;8.08;75.83
41800;BME280;27468;47.460;19.034;2024-02-21T03:04:41;101120.56;;;8.13;75.70
41800;BME280;27468;47.460;19.034;2024-02-21T03:07:06;101118.81;;;8.01;75.76
41800;BME280;27468;47.460;19.034;2024-02-21T03:09:32;101123.19;;;8.14;75.72
41800;BME280;27468;47.460;19.034;2024-02-21T03:11:57;101099.53;;;7.88;75.99
41800;BME280;27468;47.460;19.034;2024-02-21T03:14:28;101103.06;;;8.01;76.03
41800;BME280;27468;47.460;19.034;2024-02-21T03:16:53;101112.69;;;8.02;76.64
41800;BME280;27468;47.460;19.034;2024-02-21T03:19:18;101143.34;;;8.18;76.64
41800;BME280;27468;47.460;19.034;2024-02-21T03:21:44;101147.69;;;8.16;76.69
41800;BME280;27468;47.460;19.034;2024-02-21T03:24:09;101151.22;;;8.21;76.21
41800;BME280;27468;47.460;19.034;2024-02-21T03:26:34;101136.31;;;8.04;76.83
41800;BME280;27468;47.460;19.034;2024-02-21T03:29:00;101125.84;;;8.08;76.06
41800;BME280;27468;47.460;19.034;2024-02-21T03:31:25;101134.59;;;8.07;76.07
41800;BME280;27468;47.460;19.034;2024-02-21T03:33:50;101120.56;;;8.05;76.01
41800;BME280;27468;47.460;19.034;2024-02-21T03:36:16;101145.06;;;8.13;76.18
41800;BME280;27468;47.460;19.034;2024-02-21T03:38:41;101145.09;;;8.06;76.56
41800;BME280;27468;47.460;19.034;2024-02-21T03:41:06;101151.19;;;8.09;77.28
41800;BME280;27468;47.460;19.034;2024-02-21T03:43:32;101148.56;;;8.03;77.42
41800;BME280;27468;47.460;19.034;2024-02-21T03:45:57;101121.41;;;7.89;77.75
41800;BME280;27468;47.460;19.034;2024-02-21T03:48:22;101135.41;;;7.92;77.99
41800;BME280;27468;47.460;19.034;2024-02-21T03:50:48;101164.28;;;7.94;78.04
41800;BME280;27468;47.460;19.034;2024-02-21T03:53:13;101153.75;;;7.82;78.49
41800;BME280;27468;47.460;19.034;2024-02-21T03:55:38;101138.84;;;7.78;78.19
41800;BME280;27468;47.460;19.034;2024-02-21T03:58:03;101121.28;;;7.63;78.59
41800;BME280;27468;47.460;19.034;2024-02-21T04:00:29;101153.72;;;7.73;78.51
41800;BME280;27468;47.460;19.034;2024-02-21T04:02:54;101152.84;;;7.74;78.61
41800;BME280;27468;47.460;19.034;2024-02-21T04:05:21;101138.78;;;7.59;78.89
41800;BME280;27468;47.460;19.034;2024-02-21T04:07:46;101118.59;;;7.37;78.69
41800;BME280;27468;47.460;19.034;2024-02-21T04:10:11;101151.00;;;7.50;79.11
41800;BME280;27468;47.460;19.034;2024-02-21T04:12:37;101122.97;;;7.43;79.16
41800;BME280;27468;47.460;19.034;2024-02-21T04:15:03;101121.19;;;7.34;79.33
41800;BME280;27468;47.460;19.034;2024-02-21T04:17:29;101108.91;;;7.27;79.72
41800;BME280;27468;47.460;19.034;2024-02-21T04:20:02;101141.31;;;7.35;80.33
41800;BME280;27468;47.460;19.034;2024-02-21T04:22:30;101141.31;;;7.35;80.55
41800;BME280;27468;47.460;19.034;2024-02-21T04:24:56;101122.88;;;7.23;80.37
41800;BME280;27468;47.460;19.034;2024-02-21T04:27:21;101118.44;;;7.13;81.01
41800;BME280;27468;47.460;19.034;2024-02-21T04:29:46;101145.66;;;7.30;80.94
41800;BME280;27468;47.460;19.034;2024-02-21T04:32:11;101127.16;;;7.10;81.33
41800;BME280;27468;47.460;19.034;2024-02-21T04:34:37;101113.13;;;7.02;81.60
41800;BME280;27468;47.460;19.034;2024-02-21T04:37:02;101130.66;;;7.12;81.65
41800;BME280;27468;47.460;19.034;2024-02-21T04:39:28;101120.09;;;6.97;82.12
41800;BME280;27468;47.460;19.034;2024-02-21T04:41:53;101127.09;;;7.00;82.53
41800;BME280;27468;47.460;19.034;2024-02-21T04:44:18;101133.19;;;6.97;82.82
41800;BME280;27468;47.460;19.034;2024-02-21T04:46:47;101118.31;;;6.90;83.04
41800;BME280;27468;47.460;19.034;2024-02-21T04:49:12;101128.78;;;6.87;83.51
41800;BME280;27468;47.460;19.034;2024-02-21T04:51:41;101135.78;;;6.89;83.91
41800;BME280;27468;47.460;19.034;2024-02-21T04:54:06;101125.22;;;6.80;84.18
41800;BME280;27468;47.460;19.034;2024-02-21T04:56:32;101138.34;;;6.83;84.59
41800;BME280;27468;47.460;19.034;2024-02-21T04:58:57;101119.09;;;6.77;84.99
41800;BME280;27468;47.460;19.034;2024-02-21T05:01:22;101117.31;;;6.74;85.39
41800;BME280;27468;47.460;19.034;2024-02-21T05:03:48;101148.91;;;6.91;85.68
41800;BME280;27468;47.460;19.034;2024-02-21T05:06:13;101124.22;;;6.65;86.75
41800;BME280;27468;47.460;19.034;2024-02-21T05:08:39;101131.25;;;6.67;86.75
41800;BME280;27468;47.460;19.034;2024-02-21T05:11:04;101140.84;;;6.68;86.77
41800;BME280;27468;47.460;19.034;2024-02-21T05:13:30;101125.94;;;6.59;86.97
41800;BME280;27468;47.460;19.034;2024-02-21T05:15:55;101110.09;;;6.44;87.18
41800;BME280;27468;47.460;19.034;2024-02-21T05:18:20;101129.41;;;6.58;87.25
41800;BME280;27468;47.460;19.034;2024-02-21T05:20:46;101145.19;;;6.63;87.62
41800;BME280;27468;47.460;19.034;2024-02-21T05:23:11;101131.13;;;6.53;87.71
41800;BME280;27468;47.460;19.034;2024-02-21T05:25:37;101133.72;;;6.52;87.94
41800;BME280;27468;47.460;19.034;2024-02-21T05:28:03;101142.47;;;6.54;88.17
41800;BME280;27468;47.460;19.034;2024-02-21T05:30:29;101134.59;;;6.52;88.40
41800;BME280;27468;47.460;19.034;2024-02-21T05:32:54;101135.41;;;6.44;88.32
41800;BME280;27468;47.460;19.034;2024-02-21T05:35:25;101131.03;;;6.44;88.67
41800;BME280;27468;47.460;19.034;2024-02-21T05:37:50;101130.09;;;6.36;88.88
41800;BME280;27468;47.460;19.034;2024-02-21T05:40:17;101136.19;;;6.37;89.24
41800;BME280;27468;47.460;19.034;2024-02-21T05:42:43;101130.13;;;6.41;88.97
41800;BME280;27468;47.460;19.034;2024-02-21T05:45:08;101118.72;;;6.29;88.90
41800;BME280;27468;47.460;19.034;2024-02-21T05:47:34;101106.44;;;6.24;89.04
41800;BME280;27468;47.460;19.034;2024-02-21T05:49:59;101145.03;;;6.46;88.71
41800;BME280;27468;47.460;19.034;2024-02-21T05:52:25;101132.72;;;6.39;88.54
41800;BME280;27468;47.460;19.034;2024-02-21T05:54:50;101115.25;;;6.34;88.14
41800;BME280;27468;47.460;19.034;2024-02-21T05:57:17;101122.22;;;6.33;88.13
41800;BME280;27468;47.460;19.034;2024-02-21T05:59:43;101139.72;;;6.40;87.87
41800;BME280;27468;47.460;19.034;2024-02-21T06:02:08;101139.69;;;6.37;87.76
41800;BME280;27468;47.460;19.034;2024-02-21T06:04:34;101147.66;;;6.46;87.64
41800;BME280;27468;47.460;19.034;2024-02-21T06:07:00;101138.81;;;6.37;87.59
41800;BME280;27468;47.460;19.034;2024-02-21T06:09:25;101165.16;;;6.52;87.28
41800;BME280;27468;47.460;19.034;2024-02-21T06:11:50;101154.66;;;6.50;86.79
41800;BME280;27468;47.460;19.034;2024-02-21T06:14:16;101124.00;;;6.40;86.76
41800;BME280;27468;47.460;19.034;2024-02-21T06:16:43;101129.28;;;6.43;86.94
41800;BME280;27468;47.460;19.034;2024-02-21T06:19:08;101136.25;;;6.41;87.29
41800;BME280;27468;47.460;19.034;2024-02-21T06:21:34;101157.34;;;6.58;86.98
41800;BME280;27468;47.460;19.034;2024-02-21T06:23:59;101126.69;;;6.48;86.88
41800;BME280;27468;47.460;19.034;2024-02-21T06:26:25;101124.09;;;6.48;86.25
41800;BME280;27468;47.460;19.034;2024-02-21T06:28:50;101146.06;;;6.65;86.03
41800;BME280;27468;47.460;19.034;2024-02-21T06:31:15;101164.53;;;6.80;86.01
41800;BME280;27468;47.460;19.034;2024-02-21T06:33:41;101159.34;;;6.86;85.70
41800;BME280;27468;47.460;19.034;2024-02-21T06:36:07;101163.75;;;6.92;85.64
41800;BME280;27468;47.460;19.034;2024-02-21T06:38:32;101150.50;;;6.72;86.29
41800;BME280;27468;47.460;19.034;2024-02-21T06:40:59;101125.97;;;6.64;86.08
41800;BME280;27468;47.460;19.034;2024-02-21T06:43:25;101132.09;;;6.65;86.53
41800;BME280;27468;47.460;19.034;2024-02-21T06:45:51;101153.13;;;6.74;86.61
41800;BME280;27468;47.460;19.034;2024-02-21T06:48:17;101151.41;;;6.76;86.95
41800;BME280;27468;47.460;19.034;2024-02-21T06:50:43;101113.66;;;6.54;87.25
41800;BME280;27468;47.460;19.034;2024-02-21T06:53:08;101114.53;;;6.53;88.06
41800;BME280;27468;47.460;19.034;2024-02-21T06:55:34;101164.53;;;6.77;88.08
41800;BME280;27468;47.460;19.034;2024-02-21T06:57:59;101148.75;;;6.73;86.92
41800;BME280;27468;47.460;19.034;2024-02-21T07:00:24;101161.13;;;6.89;86.08
41800;BME280;27468;47.460;19.034;2024-02-21T07:02:51;101120.84;;;6.76;85.17
41800;BME280;27468;47.460;19.034;2024-02-21T07:05:16;101176.03;;;7.01;84.61
41800;BME280;27468;47.460;19.034;2024-02-21T07:07:42;101122.66;;;6.85;84.69
41800;BME280;27468;47.460;19.034;2024-02-21T07:10:07;101147.19;;;6.99;86.35
41800;BME280;27468;47.460;19.034;2024-02-21T07:12:33;101159.50;;;7.11;86.98
41800;BME280;27468;47.460;19.034;2024-02-21T07:15:00;101173.50;;;7.13;84.39
41800;BME280;27468;47.460;19.034;2024-02-21T07:17:25;101171.78;;;7.18;83.42
41800;BME280;27468;47.460;19.034;2024-02-21T07:19:50;101148.13;;;7.10;82.69
41800;BME280;27468;47.460;19.034;2024-02-21T07:22:16;101178.91;;;7.37;81.22
41800;BME280;27468;47.460;19.034;2024-02-21T07:24:41;101188.59;;;7.46;81.15
41800;BME280;27468;47.460;19.034;2024-02-21T07:27:06;101151.78;;;7.32;81.08
41800;BME280;27468;47.460;19.034;2024-02-21T07:29:31;101170.22;;;7.53;81.88
41800;BME280;27468;47.460;19.034;2024-02-21T07:31:57;101190.47;;;7.76;81.61
41800;BME280;27468;47.460;19.034;2024-02-21T07:34:22;101199.22;;;7.76;82.14
41800;BME280;27468;47.460;19.034;2024-02-21T07:36:47;101166.81;;;7.68;81.35
41800;BME280;27468;47.460;19.034;2024-02-21T07:39:13;101208.06;;;7.97;80.79
41800;BME280;27468;47.460;19.034;2024-02-21T07:41:38;101197.56;;;7.98;79.87
41800;BME280;27468;47.460;19.034;2024-02-21T07:44:04;101223.88;;;8.06;79.93
41800;BME280;27468;47.460;19.034;2024-02-21T07:46:30;101207.22;;;7.99;79.88
41800;BME280;27468;47.460;19.034;2024-02-21T07:48:55;101186.16;;;7.91;79.94
41800;BME280;27468;47.460;19.034;2024-02-21T07:51:21;101209.84;;;8.14;79.91
41800;BME280;27468;47.460;19.034;2024-02-21T07:53:46;101187.09;;;8.12;79.16
41800;BME280;27468;47.460;19.034;2024-02-21T07:56:12;101137.06;;;7.71;78.57
41800;BME280;27468;47.460;19.034;2024-02-21T07:58:38;101174.84;;;8.14;77.62
41800;BME280;27468;47.460;19.034;2024-02-21T08:01:04;101195.94;;;8.34;77.57
41800;BME280;27468;47.460;19.034;2024-02-21T08:03:29;101174.06;;;8.45;76.58
41800;BME280;27468;47.460;19.034;2024-02-21T08:05:54;101184.59;;;8.68;75.73
41800;BME280;27468;47.460;19.034;2024-02-21T08:08:20;101163.56;;;8.74;75.03
41800;BME280;27468;47.460;19.034;2024-02-21T08:10:47;101183.72;;;9.00;74.79
41800;BME280;27468;47.460;19.034;2024-02-21T08:13:12;101167.06;;;9.04;74.01
41800;BME280;27468;47.460;19.034;2024-02-21T08:15:38;101167.00;;;9.28;73.09
41800;BME280;27468;47.460;19.034;2024-02-21T08:18:05;101141.56;;;9.27;72.08
41800;BME280;27468;47.460;19.034;2024-02-21T08:20:30;101176.59;;;9.55;70.51
41800;BME280;27468;47.460;19.034;2024-02-21T08:22:56;101153.75;;;9.68;68.89
41800;BME280;27468;47.460;19.034;2024-02-21T08:25:21;101182.63;;;9.86;68.44
41800;BME280;27468;47.460;19.034;2024-02-21T08:27:46;101162.50;;;9.71;68.15
41800;BME280;27468;47.460;19.034;2024-02-21T08:30:12;101144.13;;;9.57;68.76
41800;BME280;27468;47.460;19.034;2024-02-21T08:32:37;101177.44;;;9.71;68.54
41800;BME280;27468;47.460;19.034;2024-02-21T08:35:03;101201.00;;;9.98;68.59
41800;BME280;27468;47.460;19.034;2024-02-21T08:37:30;101194.84;;;9.99;68.60
41800;BME280;27468;47.460;19.034;2024-02-21T08:39:55;101178.13;;;10.09;69.13
41800;BME280;27468;47.460;19.034;2024-02-21T08:42:20;101165.78;;;10.23;67.88
41800;BME280;27468;47.460;19.034;2024-02-21T08:44:46;101182.31;;;10.44;65.86
41800;BME280;27468;47.460;19.034;2024-02-21T08:47:11;101179.63;;;10.53;64.83
41800;BME280;27468;47.460;19.034;2024-02-21T08:49:37;101182.19;;;10.65;63.30
41800;BME280;27468;47.460;19.034;2024-02-21T08:52:03;101174.28;;;10.62;62.14
41800;BME280;27468;47.460;19.034;2024-02-21T08:54:28;101186.69;;;10.51;62.37
41800;BME280;27468;47.460;19.034;2024-02-21T08:56:54;101168.16;;;10.58;62.43
41800;BME280;27468;47.460;19.034;2024-02-21T08:59:20;101194.44;;;10.71;61.87
41800;BME280;27468;47.460;19.034;2024-02-21T09:01:46;101180.53;;;10.52;62.06
41800;BME280;27468;47.460;19.034;2024-02-21T09:04:11;101166.63;;;10.29;62.96
41800;BME280;27468;47.460;19.034;2024-02-21T09:06:37;101161.41;;;10.13;63.62
41800;BME280;27468;47.460;19.034;2024-02-21T09:09:07;101138.56;;;10.14;63.23
41800;BME280;27468;47.460;19.034;2024-02-21T09:11:33;101199.03;;;10.43;63.23
41800;BME280;27468;47.460;19.034;2024-02-21T09:13:59;101167.44;;;10.40;64.02
41800;BME280;27468;47.460;19.034;2024-02-21T09:16:24;101183.16;;;10.52;64.36
41800;BME280;27468;47.460;19.034;2024-02-21T09:18:50;101151.66;;;10.38;65.02
41800;BME280;27468;47.460;19.034;2024-02-21T09:21:15;101156.69;;;10.67;64.20
41800;BME280;27468;47.460;19.034;2024-02-21T09:23:40;101168.03;;;10.77;63.52
41800;BME280;27468;47.460;19.034;2024-02-21T09:26:06;101156.44;;;10.96;63.94
41800;BME280;27468;47.460;19.034;2024-02-21T09:28:31;101146.59;;;11.10;64.02
41800;BME280;27468;47.460;19.034;2024-02-21T09:30:58;101131.53;;;11.23;63.32
41800;BME280;27468;47.460;19.034;2024-02-21T09:33:23;101147.94;;;11.51;62.35
41800;BME280;27468;47.460;19.034;2024-02-21T09:35:48;101159.94;;;11.76;60.17
41800;BME280;27468;47.460;19.034;2024-02-21T09:38:14;101149.50;;;11.67;58.34
41800;BME280;27468;47.460;19.034;2024-02-21T09:40:40;101145.78;;;11.85;56.52
41800;BME280;27468;47.460;19.034;2024-02-21T09:43:07;101142.16;;;11.94;57.56
41800;BME280;27468;47.460;19.034;2024-02-21T09:45:33;101172.53;;;12.25;57.52
41800;BME280;27468;47.460;19.034;2024-02-21T09:48:19;101163.66;;;12.31;56.18
41800;BME280;27468;47.460;19.034;2024-02-21T09:50:51;101154.19;;;12.14;56.14
41800;BME280;27468;47.460;19.034;2024-02-21T09:53:18;101165.25;;;12.42;54.78
41800;BME280;27468;47.460;19.034;2024-02-21T09:55:45;101153.13;;;12.28;55.83
41800;BME280;27468;47.460;19.034;2024-02-21T09:58:12;101155.03;;;12.16;56.40
41800;BME280;27468;47.460;19.034;2024-02-21T10:00:37;101154.94;;;12.22;54.77
41800;BME280;27468;47.460;19.034;2024-02-21T10:03:03;101156.56;;;12.34;54.43
41800;BME280;27468;47.460;19.034;2024-02-21T10:05:34;101158.94;;;12.51;54.31
41800;BME280;27468;47.460;19.034;2024-02-21T10:08:00;101113.19;;;12.46;54.52
41800;BME280;27468;47.460;19.034;2024-02-21T10:10:26;101132.31;;;12.63;54.10
41800;BME280;27468;47.460;19.034;2024-02-21T10:12:53;101112.88;;;12.64;54.67
41800;BME280;27468;47.460;19.034;2024-02-21T10:15:23;101130.19;;;12.83;54.26
41800;BME280;27468;47.460;19.034;2024-02-21T10:17:57;101122.13;;;12.89;53.96
41800;BME280;27468;47.460;19.034;2024-02-21T10:20:23;101131.66;;;13.00;53.94
41800;BME280;27468;47.460;19.034;2024-02-21T10:22:48;101137.97;;;12.93;53.83
41800;BME280;27468;47.460;19.034;2024-02-21T10:25:14;101134.50;;;12.89;54.20
41800;BME280;27468;47.460;19.034;2024-02-21T10:27:39;101122.00;;;12.97;54.45
41800;BME280;27468;47.460;19.034;2024-02-21T10:30:07;101133.34;;;13.04;54.00
41800;BME280;27468;47.460;19.034;2024-02-21T10:32:33;101106.94;;;13.01;53.24
41800;BME280;27468;47.460;19.034;2024-02-21T10:35:02;101129.78;;;13.06;53.31
41800;BME280;27468;47.460;19.034;2024-02-21T10:37:30;101122.81;;;13.01;52.56
41800;BME280;27468;47.460;19.034;2024-02-21T10:39:55;101127.25;;;13.00;53.24
41800;BME280;27468;47.460;19.034;2024-02-21T10:42:22;101114.69;;;13.11;52.93
41800;BME280;27468;47.460;19.034;2024-02-21T10:44:50;101116.91;;;13.34;52.04
41800;BME280;27468;47.460;19.034;2024-02-21T10:47:17;101117.56;;;13.45;51.84
41800;BME280;27468;47.460;19.034;2024-02-21T10:49:49;101085.94;;;13.38;51.37
41800;BME280;27468;47.460;19.034;2024-02-21T10:55:10;101100.78;;;13.46;50.82
41800;BME280;27468;47.460;19.034;2024-02-21T10:57:37;101094.81;;;13.35;50.61
41800;BME280;27468;47.460;19.034;2024-02-21T11:00:04;101093.47;;;13.16;51.17
41800;BME280;27468;47.460;19.034;2024-02-21T11:02:34;101103.22;;;13.11;51.85
41800;BME280;27468;47.460;19.034;2024-02-21T11:05:01;101089.00;;;13.18;51.43
41800;BME280;27468;47.460;19.034;2024-02-21T11:07:29;101071.94;;;13.31;51.49
41800;BME280;27468;47.460;19.034;2024-02-21T11:09:55;101077.75;;;13.50;51.44
41800;BME280;27468;47.460;19.034;2024-02-21T11:12:21;101067.06;;;13.54;51.05
41800;BME280;27468;47.460;19.034;2024-02-21T11:14:47;101041.91;;;13.74;50.21
41800;BME280;27468;47.460;19.034;2024-02-21T11:17:19;101047.84;;;13.85;49.17
41800;BME280;27468;47.460;19.034;2024-02-21T11:19:46;101057.06;;;14.06;49.33
41800;BME280;27468;47.460;19.034;2024-02-21T11:22:17;101050.34;;;13.91;48.77
41800;BME280;27468;47.460;19.034;2024-02-21T11:24:43;101038.06;;;13.87;48.61
41800;BME280;27468;47.460;19.034;2024-02-21T11:27:12;101028.13;;;13.97;49.19
41800;BME280;27468;47.460;19.034;2024-02-21T11:29:48;101038.41;;;14.10;49.11
41800;BME280;27468;47.460;19.034;2024-02-21T11:32:20;101041.78;;;14.17;47.68
41800;BME280;27468;47.460;19.034;2024-02-21T11:35:03;101018.38;;;13.97;47.92
41800;BME280;27468;47.460;19.034;2024-02-21T11:37:32;100999.69;;;14.03;48.18
41800;BME280;27468;47.460;19.034;2024-02-21T11:40:04;101030.19;;;14.21;46.56
41800;BME280;27468;47.460;19.034;2024-02-21T11:42:33;101008.41;;;14.08;46.71
41800;BME280;27468;47.460;19.034;2024-02-21T11:45:00;101036.09;;;14.32;46.17
41800;BME280;27468;47.460;19.034;2024-02-21T11:47:25;101028.56;;;14.15;46.31
41800;BME280;27468;47.460;19.034;2024-02-21T11:49:53;100996.22;;;14.00;46.50
41800;BME280;27468;47.460;19.034;2024-02-21T11:52:21;101014.41;;;14.15;46.52
41800;BME280;27468;47.460;19.034;2024-02-21T11:54:48;101014.06;;;14.30;46.32
41800;BME280;27468;47.460;19.034;2024-02-21T11:57:13;100992.50;;;14.08;47.02
41800;BME280;27468;47.460;19.034;2024-02-21T11:59:40;101015.38;;;14.12;46.52
41800;BME280;27468;47.460;19.034;2024-02-21T12:02:06;101004.22;;;13.98;47.14
41800;BME280;27468;47.460;19.034;2024-02-21T12:04:31;101016.16;;;14.16;47.41
41800;BME280;27468;47.460;19.034;2024-02-21T12:06:57;101022.66;;;14.03;47.09
41800;BME280;27468;47.460;19.034;2024-02-21T12:09:24;100979.88;;;13.82;47.51
41800;BME280;27468;47.460;19.034;2024-02-21T12:12:03;100988.84;;;13.77;47.73
41800;BME280;27468;47.460;19.034;2024-02-21T12:14:30;100985.28;;;13.78;47.50
41800;BME280;27468;47.460;19.034;2024-02-21T12:16:56;101003.72;;;13.82;47.27
41800;BME280;27468;47.460;19.034;2024-02-21T12:19:22;101000.53;;;13.68;46.51
41800;BME280;27468;47.460;19.034;2024-02-21T12:21:50;100999.75;;;13.63;46.18
41800;BME280;27468;47.460;19.034;2024-02-21T12:24:21;101010.56;;;13.54;46.34
41800;BME280;27468;47.460;19.034;2024-02-21T12:26:47;100986.69;;;13.55;46.79
41800;BME280;27468;47.460;19.034;2024-02-21T12:29:13;100979.59;;;13.56;46.57
41800;BME280;27468;47.460;19.034;2024-02-21T12:31:39;100988.34;;;13.60;46.23
41800;BME280;27468;47.460;19.034;2024-02-21T12:34:05;100993.31;;;13.75;46.43
41800;BME280;27468;47.460;19.034;2024-02-21T12:36:31;100990.88;;;13.66;46.06
41800;BME280;27468;47.460;19.034;2024-02-21T12:38:57;100959.44;;;13.49;46.80
41800;BME280;27468;47.460;19.034;2024-02-21T12:41:22;100982.50;;;13.84;45.73
41800;BME280;27468;47.460;19.034;2024-02-21T12:43:47;100958.28;;;13.62;45.48
41800;BME280;27468;47.460;19.034;2024-02-21T12:46:12;100955.25;;;13.77;46.03
41800;BME280;27468;47.460;19.034;2024-02-21T12:48:38;100958.25;;;13.99;46.80